sensor_id;sensor_type;location;lat;lon;timestamp;P1;durP1;ratioP1;P2;durP2;ratioP2
30010;SDS011;16851;53.564;8.112;2023-04-01T00:01:58;21.17;;;12.73;;
30010;SDS011;16851;53.564;8.112;2023-04-01T00:07:00;18.43;;;13.07;;
30010;SDS011;16851;53.564;8.112;2023-04-01T00:12:03;18.87;;;12.50;;
30010;SDS011;16851;53.564;8.112;2023-04-01T00:17:09;21.83;;;13.17;;
30010;SDS011;16851;53.564;8.112;2023-04-01T00:22:13;21.00;;;13.33;;
30010;SDS011;16851;53.564;8.112;2023-04-01T00:27:15;21.33;;;13.57;;
30010;SDS011;16851;53.564;8.112;2023-04-01T00:32:19;26.40;;;15.20;;
30010;SDS011;16851;53.564;8.112;2023-04-01T00:37:26;21.93;;;14.07;;
30010;SDS011;16851;53.564;8.112;2023-04-01T00:42:31;24.97;;;15.73;;
30010;SDS011;16851;53.564;8.112;2023-04-01T00:47:37;25.40;;;16.13;;
30010;SDS011;16851;53.564;8.112;2023-04-01T00:52:39;27.07;;;16.63;;
30010;SDS011;16851;53.564;8.112;2023-04-01T00:57:43;29.30;;;18.80;;
30010;SDS011;16851;53.564;8.112;2023-04-01T01:02:50;31.67;;;18.43;;
30010;SDS011;16851;53.564;8.112;2023-04-01T01:08:01;30.20;;;19.10;;
30010;SDS011;16851;53.564;8.112;2023-04-01T01:18:50;35.10;;;23.17;;
30010;SDS011;16851;53.564;8.112;2023-04-01T01:40:05;51.10;;;29.47;;
30010;SDS011;16851;53.564;8.112;2023-04-01T01:45:12;51.87;;;30.43;;
30010;SDS011;16851;53.564;8.112;2023-04-01T01:50:20;49.63;;;29.50;;
30010;SDS011;16851;53.564;8.112;2023-04-01T01:55:24;46.20;;;30.40;;
30010;SDS011;16851;53.564;8.112;2023-04-01T02:00:29;54.53;;;30.17;;
30010;SDS011;16851;53.564;8.112;2023-04-01T02:05:36;54.70;;;32.67;;
30010;SDS011;16851;53.564;8.112;2023-04-01T02:10:44;40.37;;;28.57;;
30010;SDS011;16851;53.564;8.112;2023-04-01T02:15:53;48.47;;;29.87;;
30010;SDS011;16851;53.564;8.112;2023-04-01T02:21:03;42.00;;;28.20;;
30010;SDS011;16851;53.564;8.112;2023-04-01T02:26:07;43.47;;;29.53;;
30010;SDS011;16851;53.564;8.112;2023-04-01T02:31:14;43.90;;;26.87;;
30010;SDS011;16851;53.564;8.112;2023-04-01T02:36:16;40.60;;;26.57;;
30010;SDS011;16851;53.564;8.112;2023-04-01T02:41:21;37.87;;;24.93;;
30010;SDS011;16851;53.564;8.112;2023-04-01T02:46:22;39.60;;;27.00;;
30010;SDS011;16851;53.564;8.112;2023-04-01T02:51:27;46.47;;;27.47;;
30010;SDS011;16851;53.564;8.112;2023-04-01T02:56:33;55.17;;;28.07;;
30010;SDS011;16851;53.564;8.112;2023-04-01T03:01:35;54.03;;;28.23;;
30010;SDS011;16851;53.564;8.112;2023-04-01T03:06:39;49.67;;;27.93;;
30010;SDS011;16851;53.564;8.112;2023-04-01T03:11:44;41.30;;;27.17;;
30010;SDS011;16851;53.564;8.112;2023-04-01T03:16:48;52.07;;;27.90;;
30010;SDS011;16851;53.564;8.112;2023-04-01T03:21:52;50.00;;;28.63;;
30010;SDS011;16851;53.564;8.112;2023-04-01T03:26:58;42.33;;;26.87;;
30010;SDS011;16851;53.564;8.112;2023-04-01T03:31:59;56.90;;;28.70;;
30010;SDS011;16851;53.564;8.112;2023-04-01T03:37:03;51.47;;;27.07;;
30010;SDS011;16851;53.564;8.112;2023-04-01T03:42:05;45.17;;;27.37;;
30010;SDS011;16851;53.564;8.112;2023-04-01T03:47:07;53.57;;;29.20;;
30010;SDS011;16851;53.564;8.112;2023-04-01T03:52:12;52.47;;;29.33;;
30010;SDS011;16851;53.564;8.112;2023-04-01T03:57:16;46.83;;;27.07;;
30010;SDS011;16851;53.564;8.112;2023-04-01T04:02:18;43.97;;;26.67;;
30010;SDS011;16851;53.564;8.112;2023-04-01T04:07:21;42.87;;;26.80;;
30010;SDS011;16851;53.564;8.112;2023-04-01T04:12:34;48.13;;;28.10;;
30010;SDS011;16851;53.564;8.112;2023-04-01T04:17:40;45.37;;;28.10;;
30010;SDS011;16851;53.564;8.112;2023-04-01T04:22:46;58.97;;;30.63;;
30010;SDS011;16851;53.564;8.112;2023-04-01T04:27:50;45.03;;;26.20;;
30010;SDS011;16851;53.564;8.112;2023-04-01T04:32:54;47.07;;;25.20;;
30010;SDS011;16851;53.564;8.112;2023-04-01T04:37:56;52.10;;;26.43;;
30010;SDS011;16851;53.564;8.112;2023-04-01T04:42:58;55.93;;;27.23;;
30010;SDS011;16851;53.564;8.112;2023-04-01T04:48:03;41.67;;;25.93;;
30010;SDS011;16851;53.564;8.112;2023-04-01T04:53:12;55.37;;;28.60;;
30010;SDS011;16851;53.564;8.112;2023-04-01T04:58:17;50.97;;;26.13;;
30010;SDS011;16851;53.564;8.112;2023-04-01T05:03:24;48.13;;;26.13;;
30010;SDS011;16851;53.564;8.112;2023-04-01T05:08:26;49.07;;;26.87;;
30010;SDS011;16851;53.564;8.112;2023-04-01T05:13:30;53.13;;;27.90;;
30010;SDS011;16851;53.564;8.112;2023-04-01T05:18:34;56.67;;;27.97;;
30010;SDS011;16851;53.564;8.112;2023-04-01T05:23:36;45.47;;;23.63;;
30010;SDS011;16851;53.564;8.112;2023-04-01T05:28:39;48.83;;;25.63;;
30010;SDS011;16851;53.564;8.112;2023-04-01T05:33:43;48.53;;;25.97;;
30010;SDS011;16851;53.564;8.112;2023-04-01T05:38:47;43.23;;;22.77;;
30010;SDS011;16851;53.564;8.112;2023-04-01T05:43:53;47.23;;;23.90;;
30010;SDS011;16851;53.564;8.112;2023-04-01T05:49:24;39.93;;;21.60;;
30010;SDS011;16851;53.564;8.112;2023-04-01T05:54:29;33.07;;;18.67;;
30010;SDS011;16851;53.564;8.112;2023-04-01T05:59:38;29.67;;;16.40;;
30010;SDS011;16851;53.564;8.112;2023-04-01T06:04:40;40.17;;;28.75;;
30010;SDS011;16851;53.564;8.112;2023-04-01T06:09:45;31.33;;;18.67;;
30010;SDS011;16851;53.564;8.112;2023-04-01T06:30:47;15.83;;;10.33;;
30010;SDS011;16851;53.564;8.112;2023-04-01T06:36:19;15.97;;;4.90;;
30010;SDS011;16851;53.564;8.112;2023-04-01T06:46:57;9.57;;;5.00;;
30010;SDS011;16851;53.564;8.112;2023-04-01T07:03:33;6.70;;;4.10;;
30010;SDS011;16851;53.564;8.112;2023-04-01T07:08:40;13.73;;;9.40;;
30010;SDS011;16851;53.564;8.112;2023-04-01T07:14:22;10.43;;;5.93;;
30010;SDS011;16851;53.564;8.112;2023-04-01T07:19:20;10.87;;;6.30;;
30010;SDS011;16851;53.564;8.112;2023-04-01T07:24:39;7.37;;;4.37;;
30010;SDS011;16851;53.564;8.112;2023-04-01T07:29:43;6.00;;;3.30;;
30010;SDS011;16851;53.564;8.112;2023-04-01T08:01:32;3.90;;;1.50;;
30010;SDS011;16851;53.564;8.112;2023-04-01T08:11:54;3.60;;;1.90;;
30010;SDS011;16851;53.564;8.112;2023-04-01T08:23:06;1.90;;;1.40;;
30010;SDS011;16851;53.564;8.112;2023-04-01T08:33:47;3.37;;;1.50;;
30010;SDS011;16851;53.564;8.112;2023-04-01T08:39:02;4.57;;;1.87;;
30010;SDS011;16851;53.564;8.112;2023-04-01T08:44:18;2.33;;;1.60;;
30010;SDS011;16851;53.564;8.112;2023-04-01T09:01:05;4.27;;;1.43;;
30010;SDS011;16851;53.564;8.112;2023-04-01T09:17:04;5.63;;;1.13;;
30010;SDS011;16851;53.564;8.112;2023-04-01T09:27:45;6.23;;;1.37;;
30010;SDS011;16851;53.564;8.112;2023-04-01T10:20:43;4.40;;;1.53;;
30010;SDS011;16851;53.564;8.112;2023-04-01T10:59:25;4.93;;;1.30;;
30010;SDS011;16851;53.564;8.112;2023-04-01T11:15:58;2.63;;;1.33;;
30010;SDS011;16851;53.564;8.112;2023-04-01T12:20:20;2.27;;;0.90;;
30010;SDS011;16851;53.564;8.112;2023-04-01T12:36:13;5.50;;;1.30;;
30010;SDS011;16851;53.564;8.112;2023-04-01T12:52:11;4.33;;;2.00;;
30010;SDS011;16851;53.564;8.112;2023-04-01T13:07:58;3.73;;;2.40;;
30010;SDS011;16851;53.564;8.112;2023-04-01T13:13:53;5.30;;;2.30;;
30010;SDS011;16851;53.564;8.112;2023-04-01T13:34:52;7.07;;;3.30;;
30010;SDS011;16851;53.564;8.112;2023-04-01T13:45:18;11.33;;;4.83;;
30010;SDS011;16851;53.564;8.112;2023-04-01T14:01:08;8.97;;;5.47;;
30010;SDS011;16851;53.564;8.112;2023-04-01T14:06:18;9.83;;;5.53;;
30010;SDS011;16851;53.564;8.112;2023-04-01T14:27:18;10.77;;;5.10;;
30010;SDS011;16851;53.564;8.112;2023-04-01T14:54:41;12.53;;;5.37;;
30010;SDS011;16851;53.564;8.112;2023-04-01T14:59:47;12.90;;;5.30;;
30010;SDS011;16851;53.564;8.112;2023-04-01T15:04:57;12.43;;;5.97;;
30010;SDS011;16851;53.564;8.112;2023-04-01T15:15:32;11.23;;;5.00;;
30010;SDS011;16851;53.564;8.112;2023-04-01T15:31:33;9.47;;;4.47;;
30010;SDS011;16851;53.564;8.112;2023-04-01T15:36:57;12.20;;;4.50;;
30010;SDS011;16851;53.564;8.112;2023-04-01T15:47:42;11.10;;;4.83;;
30010;SDS011;16851;53.564;8.112;2023-04-01T16:04:43;11.87;;;5.13;;
30010;SDS011;16851;53.564;8.112;2023-04-01T16:30:26;14.13;;;5.70;;
30010;SDS011;16851;53.564;8.112;2023-04-01T16:47:11;14.60;;;5.97;;
30010;SDS011;16851;53.564;8.112;2023-04-01T16:52:29;13.43;;;6.33;;
30010;SDS011;16851;53.564;8.112;2023-04-01T16:57:52;20.87;;;6.93;;
30010;SDS011;16851;53.564;8.112;2023-04-01T17:03:09;13.27;;;5.63;;
30010;SDS011;16851;53.564;8.112;2023-04-01T17:13:34;18.07;;;6.70;;
30010;SDS011;16851;53.564;8.112;2023-04-01T17:24:02;14.47;;;6.13;;
30010;SDS011;16851;53.564;8.112;2023-04-01T17:29:18;16.30;;;5.73;;
30010;SDS011;16851;53.564;8.112;2023-04-01T18:00:56;15.47;;;5.93;;
30010;SDS011;16851;53.564;8.112;2023-04-01T18:11:34;12.90;;;5.23;;
30010;SDS011;16851;53.564;8.112;2023-04-01T18:33:17;11.27;;;4.67;;
30010;SDS011;16851;53.564;8.112;2023-04-01T18:38:34;12.97;;;4.10;;
30010;SDS011;16851;53.564;8.112;2023-04-01T19:00:20;8.00;;;3.43;;
30010;SDS011;16851;53.564;8.112;2023-04-01T19:05:34;14.03;;;4.13;;
30010;SDS011;16851;53.564;8.112;2023-04-01T19:21:18;12.37;;;4.00;;
30010;SDS011;16851;53.564;8.112;2023-04-01T19:26:45;11.37;;;4.43;;
30010;SDS011;16851;53.564;8.112;2023-04-01T19:32:16;10.83;;;4.30;;
30010;SDS011;16851;53.564;8.112;2023-04-01T19:37:28;14.97;;;4.23;;
30010;SDS011;16851;53.564;8.112;2023-04-01T19:53:52;7.73;;;3.23;;
30010;SDS011;16851;53.564;8.112;2023-04-01T19:59:13;11.47;;;3.37;;
30010;SDS011;16851;53.564;8.112;2023-04-01T20:15:01;5.77;;;3.40;;
30010;SDS011;16851;53.564;8.112;2023-04-01T21:07:54;12.87;;;3.47;;
30010;SDS011;16851;53.564;8.112;2023-04-01T21:13:15;6.63;;;3.00;;
30010;SDS011;16851;53.564;8.112;2023-04-01T21:39:38;10.20;;;3.00;;
30010;SDS011;16851;53.564;8.112;2023-04-01T21:45:17;10.73;;;3.13;;
30010;SDS011;16851;53.564;8.112;2023-04-01T21:50:59;9.37;;;2.73;;
30010;SDS011;16851;53.564;8.112;2023-04-01T22:07:38;6.73;;;3.00;;
30010;SDS011;16851;53.564;8.112;2023-04-01T22:18:19;6.10;;;3.00;;
30010;SDS011;16851;53.564;8.112;2023-04-01T22:23:46;6.50;;;2.47;;
30010;SDS011;16851;53.564;8.112;2023-04-01T22:28:52;7.27;;;3.40;;
30010;SDS011;16851;53.564;8.112;2023-04-01T22:50:13;8.03;;;2.80;;
30010;SDS011;16851;53.564;8.112;2023-04-01T22:55:28;7.27;;;2.90;;
30010;SDS011;16851;53.564;8.112;2023-04-01T23:00:35;12.60;;;2.97;;
30010;SDS011;16851;53.564;8.112;2023-04-01T23:05:40;9.07;;;2.97;;
30010;SDS011;16851;53.564;8.112;2023-04-01T23:10:50;9.43;;;3.53;;
30010;SDS011;16851;53.564;8.112;2023-04-01T23:15:58;7.63;;;3.23;;
30010;SDS011;16851;53.564;8.112;2023-04-01T23:21:09;9.40;;;3.30;;
30010;SDS011;16851;53.564;8.112;2023-04-01T23:26:17;14.77;;;3.10;;
30010;SDS011;16851;53.564;8.112;2023-04-01T23:31:37;12.97;;;3.53;;
30010;SDS011;16851;53.564;8.112;2023-04-01T23:36:52;11.30;;;3.07;;
30010;SDS011;16851;53.564;8.112;2023-04-01T23:42:03;8.20;;;2.73;;
30010;SDS011;16851;53.564;8.112;2023-04-01T23:47:06;6.13;;;2.80;;
30010;SDS011;16851;53.564;8.112;2023-04-01T23:57:32;6.33;;;2.67;;
